San Juan de Alicante, Spain
Current Conditions -  °F | °C
As of 8:30 AM on Saturday 29 Nov 2014 (Local Time) from LEAL Reporting Station
Broken Clouds Broken Clouds  
Wind Chill: 59°   Ceiling: 4000
Heat Index: 59°   Visibility: 5mi
Dew Point: 57°   Wind: 7mph
Humidity: 94%   Direction: 250°WSW
Pressure: 29.26"   Gusts: NA
Location:  38.4°N, 0.44°W
Report Text: LEAL 290730Z 25006KT 8000 FEW025 BKN040 15/14 Q0991 NOSIG
Loading
Personal Weather Stations






























Interactive Weather Map New forecast layout! Learn more

10-Day Weather Forecast

Advertisements
Track Severe Weather on mobile